createdAt,value
2022-10-19T00:00:37.773Z,101357.48
2022-10-19T00:03:30.571Z,101351.82
2022-10-19T00:06:11.017Z,101343.86
2022-10-19T00:08:43.744Z,101337.77
2022-10-19T00:11:16.092Z,101336.02
2022-10-19T00:13:48.247Z,101329.00
2022-10-19T00:16:21.636Z,101327.58
2022-10-19T00:18:53.691Z,101324.42
2022-10-19T00:21:26.758Z,101324.73
2022-10-19T00:23:59.105Z,101315.17
2022-10-19T00:26:31.410Z,101310.80
2022-10-19T00:29:04.339Z,101306.39
2022-10-19T00:31:36.814Z,101310.13
2022-10-19T00:34:09.040Z,101305.38
2022-10-19T00:36:42.647Z,101300.36
2022-10-19T00:39:16.950Z,101297.92
2022-10-19T00:41:51.404Z,101293.55
2022-10-19T00:44:58.104Z,101290.80
2022-10-19T00:47:31.723Z,101287.66
2022-10-19T00:50:03.846Z,101279.48
2022-10-19T00:52:36.359Z,101281.95
2022-10-19T00:55:12.562Z,101280.66
2022-10-19T00:57:43.097Z,101279.30
2022-10-19T01:00:16.168Z,101267.34
2022-10-19T01:02:49.011Z,101264.83
2022-10-19T01:05:21.636Z,101262.85
2022-10-19T01:07:53.739Z,101261.45
2022-10-19T01:10:33.149Z,101258.33
2022-10-19T01:13:30.090Z,101255.70
2022-10-19T01:16:06.289Z,101256.44
2022-10-19T01:18:46.321Z,101251.30
2022-10-19T01:21:26.208Z,101246.83
2022-10-19T01:24:39.883Z,101243.86
2022-10-19T01:27:40.558Z,101238.75
2022-10-19T01:30:28.795Z,101231.98
2022-10-19T01:33:13.527Z,101231.27
2022-10-19T01:35:55.014Z,101224.02
2022-10-19T01:38:35.259Z,101221.24
2022-10-19T01:41:16.269Z,101219.70
2022-10-19T01:43:57.030Z,101216.27
2022-10-19T01:46:35.758Z,101213.70
2022-10-19T01:49:16.713Z,101208.00
2022-10-19T01:51:54.222Z,101202.83
2022-10-19T01:54:30.814Z,101200.90
2022-10-19T01:57:07.336Z,101196.68
2022-10-19T01:59:41.169Z,101194.47
2022-10-19T02:02:15.095Z,101184.59
2022-10-19T02:04:50.281Z,101189.56
2022-10-19T02:07:24.116Z,101186.99
2022-10-19T02:09:57.307Z,101186.48
2022-10-19T02:12:33.330Z,101188.61
2022-10-19T02:15:11.515Z,101178.20
2022-10-19T02:17:48.912Z,101178.75
2022-10-19T02:20:22.899Z,101173.84
2022-10-19T02:22:55.027Z,101168.19
2022-10-19T02:25:27.914Z,101168.21
2022-10-19T02:28:01.318Z,101163.73
2022-10-19T02:30:33.476Z,101166.21
2022-10-19T02:33:05.739Z,101164.59
2022-10-19T02:35:37.840Z,101160.31
2022-10-19T02:38:12.172Z,101163.23
2022-10-19T02:40:53.035Z,101160.70
2022-10-19T02:43:27.948Z,101164.64
2022-10-19T02:46:06.380Z,101167.73
2022-10-19T02:48:41.894Z,101165.54
2022-10-19T02:51:31.274Z,101159.71
2022-10-19T02:54:05.388Z,101159.23
2022-10-19T02:56:38.405Z,101158.22
2022-10-19T02:59:10.450Z,101159.73
2022-10-19T03:01:42.539Z,101163.11
2022-10-19T03:04:14.802Z,101162.00
2022-10-19T03:06:46.977Z,101155.77
2022-10-19T03:09:19.100Z,101149.89
2022-10-19T03:11:51.209Z,101149.19
2022-10-19T03:14:23.292Z,101151.48
2022-10-19T03:16:55.451Z,101150.05
2022-10-19T03:19:27.675Z,101144.46
2022-10-19T03:21:59.789Z,101146.90
2022-10-19T03:24:32.732Z,101145.20
2022-10-19T03:27:04.973Z,101142.40
2022-10-19T03:29:37.056Z,101142.97
2022-10-19T03:32:09.298Z,101139.84
2022-10-19T03:34:41.383Z,101137.55
2022-10-19T03:37:15.347Z,101139.11
2022-10-19T03:39:47.558Z,101136.61
2022-10-19T03:42:19.652Z,101134.75
2022-10-19T03:44:51.808Z,101130.38
2022-10-19T03:47:23.971Z,101125.73
2022-10-19T03:49:56.080Z,101126.41
2022-10-19T03:52:28.268Z,101126.11
2022-10-19T03:55:02.843Z,101120.05
2022-10-19T03:57:35.176Z,101120.17
2022-10-19T04:00:09.085Z,101115.61
2022-10-19T04:02:41.133Z,101114.45
2022-10-19T04:05:13.410Z,101119.16
2022-10-19T04:07:45.568Z,101114.21
2022-10-19T04:10:18.504Z,101108.33
2022-10-19T04:12:53.796Z,101106.55
2022-10-19T04:15:26.496Z,101100.95
2022-10-19T04:17:58.523Z,101096.41
2022-10-19T04:20:30.587Z,101096.59
2022-10-19T04:23:02.823Z,101094.05
2022-10-19T04:25:35.092Z,101094.27
2022-10-19T04:28:07.392Z,101089.99
2022-10-19T04:30:39.560Z,101087.57
2022-10-19T04:33:11.696Z,101083.83
2022-10-19T04:35:43.827Z,101077.02
2022-10-19T04:38:16.012Z,101071.67
2022-10-19T04:40:48.201Z,101072.08
2022-10-19T04:43:20.265Z,101071.80
2022-10-19T04:45:52.436Z,101065.80
2022-10-19T04:48:24.732Z,101063.83
2022-10-19T04:50:58.572Z,101062.58
2022-10-19T04:53:30.821Z,101063.17
2022-10-19T04:56:08.099Z,101061.64
2022-10-19T04:58:40.189Z,101059.69
2022-10-19T05:01:14.001Z,101057.41
2022-10-19T05:03:47.156Z,101060.24
2022-10-19T05:06:19.454Z,101061.49
2022-10-19T05:08:52.493Z,101060.07
2022-10-19T05:11:24.612Z,101055.23
2022-10-19T05:13:57.181Z,101057.59
2022-10-19T05:16:29.799Z,101055.94
2022-10-19T05:19:02.280Z,101056.39
2022-10-19T05:21:34.427Z,101062.05
2022-10-19T05:24:06.793Z,101060.35
2022-10-19T05:26:38.871Z,101058.80
2022-10-19T05:29:14.358Z,101060.84
2022-10-19T05:31:46.531Z,101057.48
2022-10-19T05:34:18.691Z,101051.64
2022-10-19T05:36:50.866Z,101051.88
2022-10-19T05:39:22.921Z,101047.42
2022-10-19T05:41:55.294Z,101040.33
2022-10-19T05:44:27.370Z,101040.81
2022-10-19T05:46:59.679Z,101041.61
2022-10-19T05:49:32.150Z,101042.61
2022-10-19T05:52:04.909Z,101036.04
2022-10-19T05:54:37.752Z,101027.11
2022-10-19T05:57:09.853Z,101024.86
2022-10-19T05:59:42.012Z,101018.92
2022-10-19T06:02:16.655Z,101027.00
2022-10-19T06:04:48.709Z,101030.04
2022-10-19T06:07:20.773Z,101033.13
2022-10-19T06:09:52.943Z,101042.77
2022-10-19T06:12:25.283Z,101046.11
2022-10-19T06:14:57.409Z,101048.73
2022-10-19T06:17:32.656Z,101050.30
2022-10-19T06:20:05.705Z,101051.48
2022-10-19T06:22:37.855Z,101050.88
2022-10-19T06:25:11.193Z,101054.77
2022-10-19T06:27:43.319Z,101048.98
2022-10-19T06:30:16.586Z,101051.15
2022-10-19T06:32:48.759Z,101049.48
2022-10-19T06:35:21.135Z,101048.41
2022-10-19T06:37:53.619Z,101054.37
2022-10-19T06:40:26.147Z,101054.08
2022-10-19T06:42:59.227Z,101060.05
2022-10-19T06:45:35.734Z,101058.96
2022-10-19T06:48:09.860Z,101056.80
2022-10-19T06:50:41.971Z,101054.18
2022-10-19T06:53:14.036Z,101057.28
2022-10-19T06:55:46.131Z,101056.34
2022-10-19T06:58:18.271Z,101056.48
2022-10-19T07:00:58.293Z,101057.16
2022-10-19T07:03:31.778Z,101053.84
2022-10-19T07:06:07.042Z,101048.05
2022-10-19T07:08:40.550Z,101047.83
2022-10-19T07:11:16.790Z,101034.99
2022-10-19T07:13:51.575Z,101038.99
2022-10-19T07:16:24.142Z,101042.63
2022-10-19T07:18:56.474Z,101042.44
2022-10-19T07:21:28.792Z,101044.33
2022-10-19T07:24:00.995Z,101047.69
2022-10-19T07:26:33.911Z,101043.19
2022-10-19T07:29:06.857Z,101038.60
2022-10-19T07:31:38.944Z,101039.54
2022-10-19T07:34:15.181Z,101040.30
2022-10-19T07:36:49.305Z,101040.77
2022-10-19T07:39:21.367Z,101037.66
2022-10-19T07:41:53.535Z,101035.56
2022-10-19T07:44:25.752Z,101028.79
2022-10-19T07:46:58.087Z,101030.70
2022-10-19T07:49:30.431Z,101029.66
2022-10-19T07:52:02.566Z,101026.66
2022-10-19T07:54:34.791Z,101024.67
2022-10-19T07:57:06.972Z,101024.47
2022-10-19T07:59:39.050Z,101019.94
2022-10-19T08:02:17.689Z,101018.86
2022-10-19T08:05:00.862Z,101013.85
2022-10-19T08:07:37.079Z,101011.81
2022-10-19T08:10:10.911Z,101007.20
2022-10-19T08:12:44.868Z,101002.92
2022-10-19T08:15:18.092Z,101001.05
2022-10-19T08:17:50.300Z,101008.70
2022-10-19T08:20:22.631Z,101002.17
2022-10-19T08:22:57.966Z,101004.77
2022-10-19T08:25:31.245Z,101003.35
2022-10-19T08:28:03.477Z,101001.64
2022-10-19T08:30:36.979Z,101003.95
2022-10-19T08:33:12.562Z,100997.77
2022-10-19T08:35:44.608Z,100996.48
2022-10-19T08:38:16.766Z,101000.66
2022-10-19T08:40:49.720Z,100995.58
2022-10-19T08:43:30.123Z,100993.78
2022-10-19T08:46:08.080Z,100999.14
2022-10-19T08:48:43.198Z,101001.22
2022-10-19T08:51:16.065Z,100996.57
2022-10-19T08:53:55.604Z,100998.20
2022-10-19T08:56:51.815Z,100995.06
2022-10-19T08:59:31.126Z,100992.89
2022-10-19T09:02:11.008Z,100994.89
2022-10-19T09:04:49.091Z,100995.21
2022-10-19T09:07:29.292Z,100995.96
2022-10-19T09:10:05.708Z,100993.83
2022-10-19T09:12:58.402Z,100989.48
2022-10-19T09:15:39.776Z,100989.98
2022-10-19T09:18:16.107Z,100989.45
2022-10-19T09:20:50.996Z,100988.60
2022-10-19T09:23:30.883Z,100983.70
2022-10-19T09:26:03.547Z,100975.46
2022-10-19T09:28:47.643Z,100977.67
2022-10-19T09:31:31.492Z,100977.27
2022-10-19T09:34:12.316Z,100976.21
2022-10-19T09:36:50.824Z,100972.90
2022-10-19T09:39:25.696Z,100970.05
2022-10-19T09:42:06.235Z,100968.21
2022-10-19T09:44:38.880Z,100965.56
2022-10-19T09:47:36.133Z,100960.02
2022-10-19T09:50:20.322Z,100960.73
2022-10-19T09:52:53.918Z,100954.70
2022-10-19T09:55:39.559Z,100952.38
2022-10-19T09:58:20.875Z,100953.86
2022-10-19T10:00:55.437Z,100946.05
2022-10-19T10:03:30.913Z,100940.95
2022-10-19T10:06:07.623Z,100933.39
2022-10-19T10:08:45.877Z,100929.27
2022-10-19T10:11:24.971Z,100924.88
2022-10-19T10:14:00.962Z,100920.11
2022-10-19T10:16:36.176Z,100914.27
2022-10-19T10:19:14.385Z,100912.58
2022-10-19T10:21:52.625Z,100909.33
2022-10-19T10:24:26.508Z,100908.54
2022-10-19T10:27:01.132Z,100905.61
2022-10-19T10:29:34.917Z,100908.60
2022-10-19T10:32:12.635Z,100901.52
2022-10-19T10:34:53.974Z,100902.80
2022-10-19T10:37:37.079Z,100903.06
2022-10-19T10:40:23.634Z,100902.63
2022-10-19T10:42:59.092Z,100899.13
2022-10-19T10:45:35.232Z,100895.95
2022-10-19T10:48:31.533Z,100893.60
2022-10-19T10:51:08.561Z,100892.52
2022-10-19T10:53:43.504Z,100889.30
2022-10-19T10:56:26.827Z,100888.73
2022-10-19T10:59:03.997Z,100885.45
2022-10-19T11:01:41.411Z,100878.96
2022-10-19T11:04:17.640Z,100871.87
2022-10-19T11:06:56.289Z,100871.04
2022-10-19T11:09:35.129Z,100871.21
2022-10-19T11:12:12.707Z,100869.52
2022-10-19T11:14:52.264Z,100861.93
2022-10-19T11:17:29.024Z,100863.77
2022-10-19T11:20:01.429Z,100861.27
2022-10-19T11:22:42.161Z,100851.02
2022-10-19T11:25:28.773Z,100848.66
2022-10-19T11:28:14.772Z,100847.04
2022-10-19T11:30:53.788Z,100844.60
2022-10-19T11:33:40.829Z,100843.28
2022-10-19T11:36:24.175Z,100844.27
2022-10-19T11:39:12.393Z,100844.27
2022-10-19T11:41:59.930Z,100839.54
2022-10-19T11:44:47.067Z,100848.52
2022-10-19T11:47:33.449Z,100835.38
2022-10-19T11:50:31.166Z,100842.61
2022-10-19T11:53:13.618Z,100837.25
2022-10-19T11:55:55.208Z,100826.44
2022-10-19T11:58:43.746Z,100825.55
2022-10-19T12:01:23.325Z,100817.95
2022-10-19T12:04:20.290Z,100819.20
2022-10-19T12:07:05.091Z,100812.09
2022-10-19T12:09:49.052Z,100808.05
2022-10-19T12:12:33.036Z,100801.38
2022-10-19T12:15:23.724Z,100790.36
2022-10-19T12:18:00.681Z,100786.45
2022-10-19T12:20:38.051Z,100784.38
2022-10-19T12:23:26.395Z,100788.49
2022-10-19T12:26:01.937Z,100788.50
2022-10-19T12:28:34.335Z,100785.91
2022-10-19T12:31:08.380Z,100791.02
2022-10-19T12:33:51.069Z,100786.98
2022-10-19T12:36:36.237Z,100787.64
2022-10-19T12:39:19.049Z,100774.01
2022-10-19T12:41:58.404Z,100779.77
2022-10-19T12:45:10.463Z,100780.29
2022-10-19T12:48:02.564Z,100778.20
2022-10-19T12:51:08.360Z,100776.80
2022-10-19T12:53:43.456Z,100772.93
2022-10-19T12:56:20.550Z,100774.80
2022-10-19T12:58:59.965Z,100776.52
2022-10-19T13:01:45.202Z,100774.47
2022-10-19T13:04:20.615Z,100767.82
2022-10-19T13:07:01.611Z,100768.70
2022-10-19T13:09:36.391Z,100769.35
2022-10-19T13:12:45.049Z,100768.16
2022-10-19T13:15:52.238Z,100763.83
2022-10-19T13:19:02.544Z,100767.23
2022-10-19T13:22:10.711Z,100765.35
2022-10-19T13:24:43.066Z,100764.81
2022-10-19T13:27:40.904Z,100766.02
2022-10-19T13:30:51.723Z,100763.73
2022-10-19T13:33:45.505Z,100766.17
2022-10-19T13:36:18.854Z,100763.60
2022-10-19T13:39:09.332Z,100766.26
2022-10-19T13:41:57.427Z,100767.33
2022-10-19T13:44:35.665Z,100765.42
2022-10-19T13:50:41.484Z,100764.18
2022-10-19T13:53:28.536Z,100760.31
2022-10-19T13:56:21.134Z,100763.70
2022-10-19T13:59:29.023Z,100759.18
2022-10-19T14:02:33.010Z,100758.27
2022-10-19T14:05:24.016Z,100750.70
2022-10-19T14:08:09.957Z,100751.03
2022-10-19T14:11:00.060Z,100754.56
2022-10-19T14:13:34.125Z,100748.98
2022-10-19T14:16:06.645Z,100749.36
2022-10-19T14:18:39.299Z,100746.36
2022-10-19T14:21:12.391Z,100747.25
2022-10-19T14:23:44.615Z,100748.86
2022-10-19T14:26:19.633Z,100748.59
2022-10-19T14:28:57.197Z,100742.28
2022-10-19T14:31:35.796Z,100743.86
2022-10-19T14:34:10.520Z,100742.11
2022-10-19T14:36:48.395Z,100743.02
2022-10-19T14:39:30.055Z,100745.92
2022-10-19T14:42:06.890Z,100740.48
2022-10-19T14:44:42.824Z,100747.81
2022-10-19T14:47:22.489Z,100747.30
2022-10-19T14:49:54.749Z,100747.70
2022-10-19T14:52:33.919Z,100749.51
2022-10-19T14:55:15.377Z,100744.48
2022-10-19T14:57:53.149Z,100744.80
2022-10-19T15:03:03.017Z,100744.97
2022-10-19T15:05:40.671Z,100745.38
2022-10-19T15:08:20.971Z,100742.29
2022-10-19T15:10:53.553Z,100741.85
2022-10-19T15:13:29.905Z,100740.99
2022-10-19T15:16:02.338Z,100736.75
2022-10-19T15:18:56.111Z,100733.37
2022-10-19T15:21:29.446Z,100730.36
2022-10-19T15:24:22.790Z,100726.10
2022-10-19T15:27:08.791Z,100735.23
2022-10-19T15:29:41.718Z,100734.45
2022-10-19T15:32:23.795Z,100736.11
2022-10-19T15:34:56.037Z,100735.86
2022-10-19T15:37:28.333Z,100728.08
2022-10-19T15:40:10.087Z,100728.81
2022-10-19T15:42:44.535Z,100727.52
2022-10-19T15:45:35.995Z,100725.20
2022-10-19T15:48:29.258Z,100723.15
2022-10-19T15:51:01.436Z,100725.09
2022-10-19T15:53:33.559Z,100730.70
2022-10-19T15:56:06.071Z,100744.16
2022-10-19T15:58:38.299Z,100748.16
2022-10-19T16:01:18.289Z,100748.91
2022-10-19T16:03:51.782Z,100753.71
2022-10-19T16:06:27.338Z,100758.86
2022-10-19T16:08:58.778Z,100762.55
2022-10-19T16:11:33.605Z,100761.83
2022-10-19T16:14:05.768Z,100770.02
2022-10-19T16:16:38.072Z,100771.56
2022-10-19T16:19:10.627Z,100769.13
2022-10-19T16:21:46.698Z,100783.21
2022-10-19T16:24:22.047Z,100787.13
2022-10-19T16:26:54.194Z,100789.10
2022-10-19T16:29:28.921Z,100784.31
2022-10-19T16:32:01.392Z,100783.09
2022-10-19T16:34:33.676Z,100784.30
2022-10-19T16:37:07.143Z,100789.70
2022-10-19T16:39:39.782Z,100794.33
2022-10-19T16:42:12.056Z,100796.48
2022-10-19T16:44:45.306Z,100800.34
2022-10-19T16:47:19.134Z,100806.16
2022-10-19T16:49:58.160Z,100806.42
2022-10-19T16:52:33.330Z,100799.89
2022-10-19T16:55:06.670Z,100804.83
2022-10-19T16:57:38.968Z,100812.98
2022-10-19T17:00:12.977Z,100805.16
2022-10-19T17:02:46.532Z,100801.60
2022-10-19T17:05:19.380Z,100811.00
2022-10-19T17:07:51.621Z,100806.64
2022-10-19T17:10:23.868Z,100813.06
2022-10-19T17:12:59.185Z,100818.23
2022-10-19T17:15:42.586Z,100822.49
2022-10-19T17:18:15.710Z,100820.23
2022-10-19T17:20:47.907Z,100823.98
2022-10-19T17:23:20.380Z,100830.17
2022-10-19T17:25:52.525Z,100832.41
2022-10-19T17:28:27.604Z,100834.28
2022-10-19T17:31:03.616Z,100837.66
2022-10-19T17:33:36.293Z,100837.48
2022-10-19T17:36:11.547Z,100825.01
2022-10-19T17:38:44.441Z,100823.98
2022-10-19T17:41:18.118Z,100814.50
2022-10-19T17:43:52.183Z,100816.39
2022-10-19T17:46:26.239Z,100821.06
2022-10-19T17:48:59.760Z,100827.52
2022-10-19T17:51:33.553Z,100823.80
2022-10-19T17:54:07.975Z,100822.80
2022-10-19T17:56:41.474Z,100820.79
2022-10-19T17:59:13.872Z,100824.59
2022-10-19T18:01:45.991Z,100825.01
2022-10-19T18:04:18.124Z,100819.84
2022-10-19T18:06:50.307Z,100817.63
2022-10-19T18:09:22.492Z,100828.38
2022-10-19T18:11:54.608Z,100823.89
2022-10-19T18:14:26.719Z,100819.65
2022-10-19T18:16:58.996Z,100813.73
2022-10-19T18:19:31.239Z,100816.91
2022-10-19T18:22:03.519Z,100816.67
2022-10-19T18:24:35.845Z,100819.95
2022-10-19T18:27:08.179Z,100820.70
2022-10-19T18:29:40.297Z,100819.73
2022-10-19T18:32:12.419Z,100822.50
2022-10-19T18:34:44.654Z,100828.40
2022-10-19T18:37:16.789Z,100832.39
2022-10-19T18:39:49.044Z,100836.30
2022-10-19T18:42:21.197Z,100838.61
2022-10-19T18:44:53.331Z,100837.29
2022-10-19T18:47:25.470Z,100840.43
2022-10-19T18:49:58.760Z,100840.52
2022-10-19T18:52:36.333Z,100836.21
2022-10-19T18:55:10.117Z,100839.89
2022-10-19T18:57:42.481Z,100842.23
2022-10-19T19:00:16.588Z,100834.08
2022-10-19T19:02:55.768Z,100841.44
2022-10-19T19:05:28.008Z,100836.62
2022-10-19T19:08:00.107Z,100843.86
2022-10-19T19:10:32.440Z,100849.45
2022-10-19T19:13:04.607Z,100855.15
2022-10-19T19:15:37.065Z,100852.61
2022-10-19T19:18:09.255Z,100857.20
2022-10-19T19:20:44.163Z,100862.00
2022-10-19T19:23:16.261Z,100860.94
2022-10-19T19:25:48.423Z,100860.63
2022-10-19T19:28:20.721Z,100867.66
2022-10-19T19:30:52.896Z,100884.90
2022-10-19T19:33:25.023Z,100893.11
2022-10-19T19:35:57.190Z,100899.30
2022-10-19T19:38:29.405Z,100896.95
2022-10-19T19:41:04.617Z,100910.75
2022-10-19T19:43:38.380Z,100915.05
2022-10-19T19:46:12.730Z,100908.69
2022-10-19T19:48:47.688Z,100926.33
2022-10-19T19:51:21.770Z,100929.00
2022-10-19T19:53:53.937Z,100925.48
2022-10-19T19:56:26.211Z,100926.52
2022-10-19T19:58:59.927Z,100932.98
2022-10-19T20:01:32.597Z,100940.75
2022-10-19T20:04:04.781Z,100945.20
2022-10-19T20:06:38.088Z,100944.67
2022-10-19T20:09:10.818Z,100938.55
2022-10-19T20:11:43.076Z,100940.18
2022-10-19T20:14:15.605Z,100936.96
2022-10-19T20:16:47.704Z,100938.13
2022-10-19T20:19:19.895Z,100940.08
2022-10-19T20:21:52.955Z,100926.71
2022-10-19T20:24:25.056Z,100935.60
2022-10-19T20:26:57.356Z,100935.66
2022-10-19T20:29:29.624Z,100937.84
2022-10-19T20:32:01.905Z,100935.10
2022-10-19T20:34:35.591Z,100939.48
2022-10-19T20:37:07.800Z,100940.45
2022-10-19T20:39:39.917Z,100943.56
2022-10-19T20:42:12.285Z,100943.64
2022-10-19T20:44:45.185Z,100945.81
2022-10-19T20:47:17.577Z,100939.98
2022-10-19T20:49:50.450Z,100941.45
2022-10-19T20:52:22.592Z,100950.64
2022-10-19T20:54:54.696Z,100944.26
2022-10-19T20:57:26.937Z,100955.04
2022-10-19T20:59:59.031Z,100954.80
2022-10-19T21:02:31.192Z,100956.45
2022-10-19T21:05:03.369Z,100950.05
2022-10-19T21:07:35.515Z,100957.80
2022-10-19T21:10:08.789Z,100955.06
2022-10-19T21:12:41.068Z,100957.06
2022-10-19T21:15:14.091Z,100955.73
2022-10-19T21:17:48.248Z,100952.70
2022-10-19T21:20:20.464Z,100956.52
2022-10-19T21:22:52.699Z,100955.49
2022-10-19T21:25:25.234Z,100954.22
2022-10-19T21:27:57.333Z,100939.95
2022-10-19T21:30:29.509Z,100945.71
2022-10-19T21:33:01.604Z,100947.34
2022-10-19T21:35:36.826Z,100949.78
2022-10-19T21:38:08.927Z,100945.86
2022-10-19T21:40:41.054Z,100942.67
2022-10-19T21:43:13.173Z,100937.64
2022-10-19T21:45:45.426Z,100935.77
2022-10-19T21:48:17.646Z,100939.43
2022-10-19T21:50:50.288Z,100941.17
2022-10-19T21:53:23.712Z,100940.84
2022-10-19T21:56:00.542Z,100945.66
2022-10-19T21:58:32.725Z,100945.20
2022-10-19T22:01:08.849Z,100947.08
2022-10-19T22:03:40.928Z,100938.83
2022-10-19T22:06:13.400Z,100952.02
2022-10-19T22:08:47.794Z,100950.91
2022-10-19T22:11:20.069Z,100958.36
2022-10-19T22:13:54.415Z,100967.36
2022-10-19T22:16:28.575Z,100972.65
2022-10-19T22:19:01.072Z,100982.39
2022-10-19T22:21:34.661Z,100983.70
2022-10-19T22:24:09.294Z,100986.20
2022-10-19T22:26:43.658Z,100987.91
2022-10-19T22:29:15.850Z,100990.52
2022-10-19T22:31:48.079Z,100996.53
2022-10-19T22:34:20.662Z,100991.76
2022-10-19T22:36:52.788Z,100981.83
2022-10-19T22:39:27.810Z,100982.40
2022-10-19T22:42:00.296Z,100994.55
2022-10-19T22:44:32.530Z,100990.52
2022-10-19T22:47:04.665Z,101007.30
2022-10-19T22:49:36.713Z,101005.15
2022-10-19T22:52:08.982Z,101005.48
2022-10-19T22:54:41.047Z,101006.54
2022-10-19T22:57:13.322Z,101000.31
2022-10-19T22:59:45.421Z,100998.20
2022-10-19T23:02:17.654Z,101003.04
2022-10-19T23:04:49.790Z,101001.78
2022-10-19T23:07:21.876Z,101001.43
2022-10-19T23:09:53.935Z,100991.27
2022-10-19T23:12:26.283Z,101000.89
2022-10-19T23:14:58.469Z,101005.90
2022-10-19T23:17:30.562Z,101007.81
2022-10-19T23:20:02.690Z,101015.04
2022-10-19T23:22:34.783Z,101014.05
2022-10-19T23:25:08.489Z,101010.15
2022-10-19T23:27:40.607Z,101014.70
2022-10-19T23:30:13.854Z,101021.33
2022-10-19T23:32:45.949Z,101031.19
2022-10-19T23:35:18.263Z,101036.36
2022-10-19T23:37:50.351Z,101034.69
2022-10-19T23:40:22.407Z,101032.66
2022-10-19T23:42:54.519Z,101034.27
2022-10-19T23:45:26.667Z,101039.15
2022-10-19T23:47:58.774Z,101045.10
2022-10-19T23:50:30.821Z,101043.70
2022-10-19T23:53:02.959Z,101041.62
2022-10-19T23:55:35.105Z,101040.45
2022-10-19T23:58:07.220Z,101031.21
